sensor_id;sensor_type;location;lat;lon;timestamp;temperature;humidity
19516;DHT22;9901;47.448;7.692;2023-01-28T00:01:11;0.20;99.90
19516;DHT22;9901;47.448;7.692;2023-01-28T00:03:37;0.30;99.90
19516;DHT22;9901;47.448;7.692;2023-01-28T00:06:09;0.20;99.90
19516;DHT22;9901;47.448;7.692;2023-01-28T00:08:36;0.20;99.90
19516;DHT22;9901;47.448;7.692;2023-01-28T00:11:04;0.20;99.90
19516;DHT22;9901;47.448;7.692;2023-01-28T00:13:33;0.20;99.90
19516;DHT22;9901;47.448;7.692;2023-01-28T00:16:00;0.20;99.90
19516;DHT22;9901;47.448;7.692;2023-01-28T00:18:27;0.20;99.90
19516;DHT22;9901;47.448;7.692;2023-01-28T00:21:01;0.10;99.90
19516;DHT22;9901;47.448;7.692;2023-01-28T00:23:33;0.10;99.90
19516;DHT22;9901;47.448;7.692;2023-01-28T00:26:00;0.20;99.90
19516;DHT22;9901;47.448;7.692;2023-01-28T00:28:26;0.20;99.90
19516;DHT22;9901;47.448;7.692;2023-01-28T00:30:52;0.10;99.90
19516;DHT22;9901;47.448;7.692;2023-01-28T00:33:18;0.20;99.90
19516;DHT22;9901;47.448;7.692;2023-01-28T00:35:44;0.20;99.90
19516;DHT22;9901;47.448;7.692;2023-01-28T00:38:10;0.20;99.90
19516;DHT22;9901;47.448;7.692;2023-01-28T00:40:38;0.30;99.90
19516;DHT22;9901;47.448;7.692;2023-01-28T00:43:04;0.10;99.90
19516;DHT22;9901;47.448;7.692;2023-01-28T00:45:29;0.10;99.90
19516;DHT22;9901;47.448;7.692;2023-01-28T00:47:55;0.10;99.90
19516;DHT22;9901;47.448;7.692;2023-01-28T00:50:21;0.10;99.90
19516;DHT22;9901;47.448;7.692;2023-01-28T00:52:47;0.20;99.90
19516;DHT22;9901;47.448;7.692;2023-01-28T00:55:13;0.20;99.90
19516;DHT22;9901;47.448;7.692;2023-01-28T00:57:39;0.20;99.90
19516;DHT22;9901;47.448;7.692;2023-01-28T01:00:05;0.10;99.90
19516;DHT22;9901;47.448;7.692;2023-01-28T01:02:31;0.20;99.90
19516;DHT22;9901;47.448;7.692;2023-01-28T01:04:57;0.20;99.90
19516;DHT22;9901;47.448;7.692;2023-01-28T01:07:24;0.20;99.90
19516;DHT22;9901;47.448;7.692;2023-01-28T01:10:07;0.20;99.90
19516;DHT22;9901;47.448;7.692;2023-01-28T01:12:33;0.20;99.90
19516;DHT22;9901;47.448;7.692;2023-01-28T01:14:58;0.20;99.90
19516;DHT22;9901;47.448;7.692;2023-01-28T01:17:24;0.20;99.90
19516;DHT22;9901;47.448;7.692;2023-01-28T01:19:50;0.20;99.90
19516;DHT22;9901;47.448;7.692;2023-01-28T01:22:16;0.10;99.90
19516;DHT22;9901;47.448;7.692;2023-01-28T01:24:46;0.20;99.90
19516;DHT22;9901;47.448;7.692;2023-01-28T01:27:12;0.20;99.90
19516;DHT22;9901;47.448;7.692;2023-01-28T01:29:38;0.30;99.90
19516;DHT22;9901;47.448;7.692;2023-01-28T01:32:04;0.20;99.90
19516;DHT22;9901;47.448;7.692;2023-01-28T01:34:30;0.20;99.90
19516;DHT22;9901;47.448;7.692;2023-01-28T01:36:56;0.20;99.90
19516;DHT22;9901;47.448;7.692;2023-01-28T01:39:22;0.10;99.90
19516;DHT22;9901;47.448;7.692;2023-01-28T01:41:48;0.10;99.90
19516;DHT22;9901;47.448;7.692;2023-01-28T01:44:51;0.10;99.90
19516;DHT22;9901;47.448;7.692;2023-01-28T01:47:19;0.10;99.90
19516;DHT22;9901;47.448;7.692;2023-01-28T01:49:45;0.10;99.90
19516;DHT22;9901;47.448;7.692;2023-01-28T01:52:15;0.10;99.90
19516;DHT22;9901;47.448;7.692;2023-01-28T01:54:43;0.10;99.90
19516;DHT22;9901;47.448;7.692;2023-01-28T01:57:15;0.10;99.90
19516;DHT22;9901;47.448;7.692;2023-01-28T01:59:43;0.10;99.90
19516;DHT22;9901;47.448;7.692;2023-01-28T02:02:10;0.10;99.90
19516;DHT22;9901;47.448;7.692;2023-01-28T02:04:41;0.10;99.90
19516;DHT22;9901;47.448;7.692;2023-01-28T02:07:11;0.10;99.90
19516;DHT22;9901;47.448;7.692;2023-01-28T02:09:37;0.10;99.90
19516;DHT22;9901;47.448;7.692;2023-01-28T02:12:09;0.10;99.90
19516;DHT22;9901;47.448;7.692;2023-01-28T02:14:41;0.10;99.90
19516;DHT22;9901;47.448;7.692;2023-01-28T02:17:08;0.10;99.90
19516;DHT22;9901;47.448;7.692;2023-01-28T02:19:43;0.10;99.90
19516;DHT22;9901;47.448;7.692;2023-01-28T02:25:06;0.10;99.90
19516;DHT22;9901;47.448;7.692;2023-01-28T02:30:28;0.10;99.90
19516;DHT22;9901;47.448;7.692;2023-01-28T02:33:29;0.10;99.90
19516;DHT22;9901;47.448;7.692;2023-01-28T02:35:59;0.10;99.90
19516;DHT22;9901;47.448;7.692;2023-01-28T02:38:32;0.20;99.90
19516;DHT22;9901;47.448;7.692;2023-01-28T02:41:04;0.20;99.90
19516;DHT22;9901;47.448;7.692;2023-01-28T02:45:58;0.20;99.90
19516;DHT22;9901;47.448;7.692;2023-01-28T02:48:42;0.20;99.90
19516;DHT22;9901;47.448;7.692;2023-01-28T02:51:40;0.20;99.90
19516;DHT22;9901;47.448;7.692;2023-01-28T02:54:34;0.20;99.90
19516;DHT22;9901;47.448;7.692;2023-01-28T03:00:23;0.20;99.90
19516;DHT22;9901;47.448;7.692;2023-01-28T03:03:03;0.20;99.90
19516;DHT22;9901;47.448;7.692;2023-01-28T03:05:38;0.20;99.90
19516;DHT22;9901;47.448;7.692;2023-01-28T03:08:06;0.20;99.90
19516;DHT22;9901;47.448;7.692;2023-01-28T03:10:54;0.20;99.90
19516;DHT22;9901;47.448;7.692;2023-01-28T03:13:40;0.10;99.90
19516;DHT22;9901;47.448;7.692;2023-01-28T03:16:25;0.10;99.90
19516;DHT22;9901;47.448;7.692;2023-01-28T03:19:10;0.10;99.90
19516;DHT22;9901;47.448;7.692;2023-01-28T03:21:56;0.10;99.90
19516;DHT22;9901;47.448;7.692;2023-01-28T03:24:47;0.10;99.90
19516;DHT22;9901;47.448;7.692;2023-01-28T03:27:55;0.10;99.90
19516;DHT22;9901;47.448;7.692;2023-01-28T03:30:56;0.10;99.90
19516;DHT22;9901;47.448;7.692;2023-01-28T03:33:42;0.00;99.90
19516;DHT22;9901;47.448;7.692;2023-01-28T03:36:28;0.00;99.90
19516;DHT22;9901;47.448;7.692;2023-01-28T03:39:16;0.10;99.90
19516;DHT22;9901;47.448;7.692;2023-01-28T03:42:06;0.10;99.90
19516;DHT22;9901;47.448;7.692;2023-01-28T03:44:32;0.10;99.90
19516;DHT22;9901;47.448;7.692;2023-01-28T03:47:19;0.10;99.90
19516;DHT22;9901;47.448;7.692;2023-01-28T03:49:55;0.10;99.90
19516;DHT22;9901;47.448;7.692;2023-01-28T03:52:27;0.10;99.90
19516;DHT22;9901;47.448;7.692;2023-01-28T03:54:54;0.10;99.90
19516;DHT22;9901;47.448;7.692;2023-01-28T03:57:22;0.10;99.90
19516;DHT22;9901;47.448;7.692;2023-01-28T03:59:49;0.10;99.90
19516;DHT22;9901;47.448;7.692;2023-01-28T04:02:22;0.10;99.90
19516;DHT22;9901;47.448;7.692;2023-01-28T04:04:51;0.00;99.90
19516;DHT22;9901;47.448;7.692;2023-01-28T04:07:17;0.00;99.90
19516;DHT22;9901;47.448;7.692;2023-01-28T04:09:43;0.00;99.90
19516;DHT22;9901;47.448;7.692;2023-01-28T04:12:09;0.00;99.90
19516;DHT22;9901;47.448;7.692;2023-01-28T04:14:35;0.00;99.90
19516;DHT22;9901;47.448;7.692;2023-01-28T04:17:01;0.00;99.90
19516;DHT22;9901;47.448;7.692;2023-01-28T04:19:27;0.00;99.90
19516;DHT22;9901;47.448;7.692;2023-01-28T04:21:53;0.00;99.90
19516;DHT22;9901;47.448;7.692;2023-01-28T04:24:20;0.00;99.90
19516;DHT22;9901;47.448;7.692;2023-01-28T04:26:48;0.00;99.90
19516;DHT22;9901;47.448;7.692;2023-01-28T04:29:16;0.00;99.90
19516;DHT22;9901;47.448;7.692;2023-01-28T04:31:42;0.10;99.90
19516;DHT22;9901;47.448;7.692;2023-01-28T04:34:10;0.40;99.90
19516;DHT22;9901;47.448;7.692;2023-01-28T04:36:36;0.00;99.90
19516;DHT22;9901;47.448;7.692;2023-01-28T04:39:04;0.00;99.90
19516;DHT22;9901;47.448;7.692;2023-01-28T04:41:32;0.00;99.90
19516;DHT22;9901;47.448;7.692;2023-01-28T04:43:58;0.00;99.90
19516;DHT22;9901;47.448;7.692;2023-01-28T04:46:24;0.10;99.90
19516;DHT22;9901;47.448;7.692;2023-01-28T04:48:52;0.10;99.90
19516;DHT22;9901;47.448;7.692;2023-01-28T04:51:18;0.00;99.90
19516;DHT22;9901;47.448;7.692;2023-01-28T04:53:48;0.10;99.90
19516;DHT22;9901;47.448;7.692;2023-01-28T04:56:14;0.10;99.90
19516;DHT22;9901;47.448;7.692;2023-01-28T04:58:39;0.10;99.90
19516;DHT22;9901;47.448;7.692;2023-01-28T05:01:08;0.10;99.90
19516;DHT22;9901;47.448;7.692;2023-01-28T05:03:41;0.10;99.90
19516;DHT22;9901;47.448;7.692;2023-01-28T05:06:07;0.10;99.90
19516;DHT22;9901;47.448;7.692;2023-01-28T05:08:33;0.00;99.90
19516;DHT22;9901;47.448;7.692;2023-01-28T05:10:59;0.10;99.90
19516;DHT22;9901;47.448;7.692;2023-01-28T05:13:24;0.10;99.90
19516;DHT22;9901;47.448;7.692;2023-01-28T05:15:52;0.10;99.90
19516;DHT22;9901;47.448;7.692;2023-01-28T05:18:21;0.10;99.90
19516;DHT22;9901;47.448;7.692;2023-01-28T05:20:49;0.10;99.90
19516;DHT22;9901;47.448;7.692;2023-01-28T05:23:17;0.10;99.90
19516;DHT22;9901;47.448;7.692;2023-01-28T05:25:42;0.10;99.90
19516;DHT22;9901;47.448;7.692;2023-01-28T05:28:08;0.10;99.90
19516;DHT22;9901;47.448;7.692;2023-01-28T05:30:34;0.10;99.90
19516;DHT22;9901;47.448;7.692;2023-01-28T05:32:59;0.10;99.90
19516;DHT22;9901;47.448;7.692;2023-01-28T05:35:25;0.00;99.90
19516;DHT22;9901;47.448;7.692;2023-01-28T05:37:51;0.00;99.90
19516;DHT22;9901;47.448;7.692;2023-01-28T05:40:16;0.00;99.90
19516;DHT22;9901;47.448;7.692;2023-01-28T05:42:42;0.00;99.90
19516;DHT22;9901;47.448;7.692;2023-01-28T05:47:34;0.00;99.90
19516;DHT22;9901;47.448;7.692;2023-01-28T05:50:15;0.00;99.90
19516;DHT22;9901;47.448;7.692;2023-01-28T05:52:41;0.00;99.90
19516;DHT22;9901;47.448;7.692;2023-01-28T05:55:07;0.00;99.90
19516;DHT22;9901;47.448;7.692;2023-01-28T05:57:33;0.00;99.90
19516;DHT22;9901;47.448;7.692;2023-01-28T05:59:58;0.00;99.90
19516;DHT22;9901;47.448;7.692;2023-01-28T06:02:24;0.00;99.90
19516;DHT22;9901;47.448;7.692;2023-01-28T06:04:50;0.00;99.90
19516;DHT22;9901;47.448;7.692;2023-01-28T06:07:16;0.00;99.90
19516;DHT22;9901;47.448;7.692;2023-01-28T06:09:45;0.00;99.90
19516;DHT22;9901;47.448;7.692;2023-01-28T06:12:12;0.00;99.90
19516;DHT22;9901;47.448;7.692;2023-01-28T06:14:38;0.00;99.90
19516;DHT22;9901;47.448;7.692;2023-01-28T06:19:29;0.00;99.90
19516;DHT22;9901;47.448;7.692;2023-01-28T06:21:55;0.00;99.90
19516;DHT22;9901;47.448;7.692;2023-01-28T06:24:21;0.10;99.90
19516;DHT22;9901;47.448;7.692;2023-01-28T06:26:46;0.00;99.90
19516;DHT22;9901;47.448;7.692;2023-01-28T06:29:12;0.00;99.90
19516;DHT22;9901;47.448;7.692;2023-01-28T06:31:38;0.00;99.90
19516;DHT22;9901;47.448;7.692;2023-01-28T06:34:03;0.00;99.90
19516;DHT22;9901;47.448;7.692;2023-01-28T06:36:32;0.00;99.90
19516;DHT22;9901;47.448;7.692;2023-01-28T06:38:57;0.00;99.90
19516;DHT22;9901;47.448;7.692;2023-01-28T06:41:23;0.10;99.90
19516;DHT22;9901;47.448;7.692;2023-01-28T06:43:49;0.00;99.90
19516;DHT22;9901;47.448;7.692;2023-01-28T06:46:14;0.10;99.90
19516;DHT22;9901;47.448;7.692;2023-01-28T06:48:40;0.10;99.90
19516;DHT22;9901;47.448;7.692;2023-01-28T06:51:11;0.10;99.90
19516;DHT22;9901;47.448;7.692;2023-01-28T06:53:39;0.10;99.90
19516;DHT22;9901;47.448;7.692;2023-01-28T06:56:05;0.10;99.90
19516;DHT22;9901;47.448;7.692;2023-01-28T06:58:32;0.10;99.90
19516;DHT22;9901;47.448;7.692;2023-01-28T07:00:58;0.10;99.90
19516;DHT22;9901;47.448;7.692;2023-01-28T07:03:24;0.10;99.90
19516;DHT22;9901;47.448;7.692;2023-01-28T07:05:52;0.10;99.90
19516;DHT22;9901;47.448;7.692;2023-01-28T07:08:18;0.10;99.90
19516;DHT22;9901;47.448;7.692;2023-01-28T07:10:44;0.10;99.90
19516;DHT22;9901;47.448;7.692;2023-01-28T07:13:12;0.10;99.90
19516;DHT22;9901;47.448;7.692;2023-01-28T07:15:38;0.10;99.90
19516;DHT22;9901;47.448;7.692;2023-01-28T07:18:06;0.10;99.90
19516;DHT22;9901;47.448;7.692;2023-01-28T07:20:34;0.10;99.90
19516;DHT22;9901;47.448;7.692;2023-01-28T07:23:00;0.10;99.90
19516;DHT22;9901;47.448;7.692;2023-01-28T07:25:25;0.10;99.90
19516;DHT22;9901;47.448;7.692;2023-01-28T07:27:54;0.20;99.90
19516;DHT22;9901;47.448;7.692;2023-01-28T07:30:23;0.10;99.90
19516;DHT22;9901;47.448;7.692;2023-01-28T07:32:56;0.10;99.90
19516;DHT22;9901;47.448;7.692;2023-01-28T07:35:23;0.10;99.90
19516;DHT22;9901;47.448;7.692;2023-01-28T07:37:53;0.10;99.90
19516;DHT22;9901;47.448;7.692;2023-01-28T07:40:20;0.10;99.90
19516;DHT22;9901;47.448;7.692;2023-01-28T07:42:46;0.10;99.90
19516;DHT22;9901;47.448;7.692;2023-01-28T07:45:15;0.10;99.90
19516;DHT22;9901;47.448;7.692;2023-01-28T07:47:43;0.10;99.90
19516;DHT22;9901;47.448;7.692;2023-01-28T07:50:10;0.20;99.90
19516;DHT22;9901;47.448;7.692;2023-01-28T07:52:36;0.20;99.90
19516;DHT22;9901;47.448;7.692;2023-01-28T07:55:09;0.10;99.90
19516;DHT22;9901;47.448;7.692;2023-01-28T07:57:53;0.20;99.90
19516;DHT22;9901;47.448;7.692;2023-01-28T08:00:21;0.20;99.90
19516;DHT22;9901;47.448;7.692;2023-01-28T08:02:47;0.20;99.90
19516;DHT22;9901;47.448;7.692;2023-01-28T08:05:17;0.20;99.90
19516;DHT22;9901;47.448;7.692;2023-01-28T08:07:44;0.20;99.90
19516;DHT22;9901;47.448;7.692;2023-01-28T08:10:11;0.20;99.90
19516;DHT22;9901;47.448;7.692;2023-01-28T08:12:38;0.20;99.90
19516;DHT22;9901;47.448;7.692;2023-01-28T08:15:04;0.20;99.90
19516;DHT22;9901;47.448;7.692;2023-01-28T08:17:34;0.20;99.90
19516;DHT22;9901;47.448;7.692;2023-01-28T08:20:00;0.20;99.90
19516;DHT22;9901;47.448;7.692;2023-01-28T08:22:28;0.20;99.90
19516;DHT22;9901;47.448;7.692;2023-01-28T08:24:53;0.20;99.90
19516;DHT22;9901;47.448;7.692;2023-01-28T08:27:19;0.20;99.90
19516;DHT22;9901;47.448;7.692;2023-01-28T08:29:45;0.20;99.90
19516;DHT22;9901;47.448;7.692;2023-01-28T08:32:11;0.30;99.90
19516;DHT22;9901;47.448;7.692;2023-01-28T08:34:36;0.40;99.90
19516;DHT22;9901;47.448;7.692;2023-01-28T08:37:03;0.30;99.90
19516;DHT22;9901;47.448;7.692;2023-01-28T08:39:30;0.30;99.90
19516;DHT22;9901;47.448;7.692;2023-01-28T08:41:55;0.40;99.90
19516;DHT22;9901;47.448;7.692;2023-01-28T08:44:21;0.40;99.90
19516;DHT22;9901;47.448;7.692;2023-01-28T08:46:47;0.30;99.90
19516;DHT22;9901;47.448;7.692;2023-01-28T08:49:12;0.30;99.90
19516;DHT22;9901;47.448;7.692;2023-01-28T08:51:38;0.30;99.90
19516;DHT22;9901;47.448;7.692;2023-01-28T08:54:04;0.40;99.90
19516;DHT22;9901;47.448;7.692;2023-01-28T08:56:31;0.40;99.90
19516;DHT22;9901;47.448;7.692;2023-01-28T08:58:57;0.40;99.90
19516;DHT22;9901;47.448;7.692;2023-01-28T09:01:23;0.30;99.90
19516;DHT22;9901;47.448;7.692;2023-01-28T09:03:50;0.40;99.90
19516;DHT22;9901;47.448;7.692;2023-01-28T09:06:18;0.40;99.90
19516;DHT22;9901;47.448;7.692;2023-01-28T09:08:44;0.40;99.90
19516;DHT22;9901;47.448;7.692;2023-01-28T09:11:09;0.40;99.90
19516;DHT22;9901;47.448;7.692;2023-01-28T09:13:35;0.40;99.90
19516;DHT22;9901;47.448;7.692;2023-01-28T09:16:04;0.40;99.90
19516;DHT22;9901;47.448;7.692;2023-01-28T09:18:33;0.40;99.90
19516;DHT22;9901;47.448;7.692;2023-01-28T09:20:59;0.40;99.90
19516;DHT22;9901;47.448;7.692;2023-01-28T09:23:28;0.40;99.90
19516;DHT22;9901;47.448;7.692;2023-01-28T09:25:59;0.40;99.90
19516;DHT22;9901;47.448;7.692;2023-01-28T09:28:25;0.50;99.90
19516;DHT22;9901;47.448;7.692;2023-01-28T09:30:51;0.50;99.90
19516;DHT22;9901;47.448;7.692;2023-01-28T09:33:16;0.50;99.90
19516;DHT22;9901;47.448;7.692;2023-01-28T09:35:45;0.50;99.90
19516;DHT22;9901;47.448;7.692;2023-01-28T09:38:11;0.50;99.90
19516;DHT22;9901;47.448;7.692;2023-01-28T09:40:40;0.50;99.90
19516;DHT22;9901;47.448;7.692;2023-01-28T09:46:07;0.60;99.90
19516;DHT22;9901;47.448;7.692;2023-01-28T09:48:40;0.50;99.90
19516;DHT22;9901;47.448;7.692;2023-01-28T09:51:21;0.60;99.90
19516;DHT22;9901;47.448;7.692;2023-01-28T09:53:54;0.60;99.90
19516;DHT22;9901;47.448;7.692;2023-01-28T09:56:28;0.60;99.90
19516;DHT22;9901;47.448;7.692;2023-01-28T09:59:01;0.60;99.90
19516;DHT22;9901;47.448;7.692;2023-01-28T10:01:57;0.60;99.90
19516;DHT22;9901;47.448;7.692;2023-01-28T10:04:47;0.70;99.90
19516;DHT22;9901;47.448;7.692;2023-01-28T10:10:01;0.70;99.90
19516;DHT22;9901;47.448;7.692;2023-01-28T10:17:44;0.70;99.90
19516;DHT22;9901;47.448;7.692;2023-01-28T10:25:23;0.80;99.90
19516;DHT22;9901;47.448;7.692;2023-01-28T10:27:50;0.80;99.90
19516;DHT22;9901;47.448;7.692;2023-01-28T10:30:19;0.70;99.90
19516;DHT22;9901;47.448;7.692;2023-01-28T10:35:35;0.80;99.90
19516;DHT22;9901;47.448;7.692;2023-01-28T10:38:04;0.80;99.90
19516;DHT22;9901;47.448;7.692;2023-01-28T10:40:35;0.80;99.90
19516;DHT22;9901;47.448;7.692;2023-01-28T10:43:01;0.80;99.90
19516;DHT22;9901;47.448;7.692;2023-01-28T10:45:45;0.80;99.90
19516;DHT22;9901;47.448;7.692;2023-01-28T10:51:13;0.90;99.90
19516;DHT22;9901;47.448;7.692;2023-01-28T10:53:40;0.80;99.90
19516;DHT22;9901;47.448;7.692;2023-01-28T10:56:12;0.90;99.90
19516;DHT22;9901;47.448;7.692;2023-01-28T10:59:05;0.90;99.90
19516;DHT22;9901;47.448;7.692;2023-01-28T11:01:45;0.90;99.90
19516;DHT22;9901;47.448;7.692;2023-01-28T11:04:18;0.90;99.90
19516;DHT22;9901;47.448;7.692;2023-01-28T11:06:55;0.90;99.90
19516;DHT22;9901;47.448;7.692;2023-01-28T11:09:24;0.90;99.90
19516;DHT22;9901;47.448;7.692;2023-01-28T11:11:50;0.90;99.90
19516;DHT22;9901;47.448;7.692;2023-01-28T11:14:21;1.00;99.90
19516;DHT22;9901;47.448;7.692;2023-01-28T11:16:48;1.00;99.90
19516;DHT22;9901;47.448;7.692;2023-01-28T11:19:14;0.90;99.90
19516;DHT22;9901;47.448;7.692;2023-01-28T11:21:48;1.00;99.90
19516;DHT22;9901;47.448;7.692;2023-01-28T11:24:19;1.00;99.90
19516;DHT22;9901;47.448;7.692;2023-01-28T11:26:50;1.10;99.90
19516;DHT22;9901;47.448;7.692;2023-01-28T11:29:23;1.20;99.90
19516;DHT22;9901;47.448;7.692;2023-01-28T11:31:50;1.20;99.90
19516;DHT22;9901;47.448;7.692;2023-01-28T11:34:17;1.30;99.90
19516;DHT22;9901;47.448;7.692;2023-01-28T11:36:54;1.30;99.90
19516;DHT22;9901;47.448;7.692;2023-01-28T11:39:26;1.30;99.90
19516;DHT22;9901;47.448;7.692;2023-01-28T11:42:02;1.30;99.90
19516;DHT22;9901;47.448;7.692;2023-01-28T11:44:28;1.40;99.90
19516;DHT22;9901;47.448;7.692;2023-01-28T11:50:17;1.30;99.90
19516;DHT22;9901;47.448;7.692;2023-01-28T11:52:54;1.30;99.90
19516;DHT22;9901;47.448;7.692;2023-01-28T11:58:21;1.30;99.90
19516;DHT22;9901;47.448;7.692;2023-01-28T12:06:49;1.50;99.90
19516;DHT22;9901;47.448;7.692;2023-01-28T12:18:01;1.60;99.90
19516;DHT22;9901;47.448;7.692;2023-01-28T12:26:35;1.60;99.90
19516;DHT22;9901;47.448;7.692;2023-01-28T12:29:34;1.60;99.90
19516;DHT22;9901;47.448;7.692;2023-01-28T12:40:47;1.60;99.90
19516;DHT22;9901;47.448;7.692;2023-01-28T12:49:28;1.60;99.90
19516;DHT22;9901;47.448;7.692;2023-01-28T12:52:26;1.60;99.90
19516;DHT22;9901;47.448;7.692;2023-01-28T12:55:17;1.60;99.90
19516;DHT22;9901;47.448;7.692;2023-01-28T12:57:44;1.70;99.90
19516;DHT22;9901;47.448;7.692;2023-01-28T13:00:32;1.70;99.90
19516;DHT22;9901;47.448;7.692;2023-01-28T13:03:33;1.70;99.90
19516;DHT22;9901;47.448;7.692;2023-01-28T13:06:05;1.70;99.90
19516;DHT22;9901;47.448;7.692;2023-01-28T13:08:45;1.60;99.90
19516;DHT22;9901;47.448;7.692;2023-01-28T13:11:14;1.60;99.90
19516;DHT22;9901;47.448;7.692;2023-01-28T13:13:44;1.60;99.90
19516;DHT22;9901;47.448;7.692;2023-01-28T13:16:13;1.60;99.90
19516;DHT22;9901;47.448;7.692;2023-01-28T13:21:06;1.60;99.90
19516;DHT22;9901;47.448;7.692;2023-01-28T13:23:44;1.70;99.90
19516;DHT22;9901;47.448;7.692;2023-01-28T13:28:46;1.70;99.90
19516;DHT22;9901;47.448;7.692;2023-01-28T13:31:14;1.60;99.90
19516;DHT22;9901;47.448;7.692;2023-01-28T13:33:47;1.60;99.90
19516;DHT22;9901;47.448;7.692;2023-01-28T13:36:37;1.60;99.90
19516;DHT22;9901;47.448;7.692;2023-01-28T13:41:45;1.60;99.90
19516;DHT22;9901;47.448;7.692;2023-01-28T13:44:32;1.50;99.90
19516;DHT22;9901;47.448;7.692;2023-01-28T13:49:47;1.60;99.90
19516;DHT22;9901;47.448;7.692;2023-01-28T13:52:19;1.60;99.90
19516;DHT22;9901;47.448;7.692;2023-01-28T14:18:10;1.50;99.90
19516;DHT22;9901;47.448;7.692;2023-01-28T14:20:43;1.50;99.90
19516;DHT22;9901;47.448;7.692;2023-01-28T14:23:17;1.50;99.90
19516;DHT22;9901;47.448;7.692;2023-01-28T14:31:26;1.50;99.90
19516;DHT22;9901;47.448;7.692;2023-01-28T14:33:52;1.60;99.90
19516;DHT22;9901;47.448;7.692;2023-01-28T14:36:23;1.60;99.90
19516;DHT22;9901;47.448;7.692;2023-01-28T14:38:49;1.50;99.90
19516;DHT22;9901;47.448;7.692;2023-01-28T14:41:24;1.50;99.90
19516;DHT22;9901;47.448;7.692;2023-01-28T14:43:53;1.50;99.90
19516;DHT22;9901;47.448;7.692;2023-01-28T14:46:30;1.40;99.90
19516;DHT22;9901;47.448;7.692;2023-01-28T14:49:07;1.50;99.90
19516;DHT22;9901;47.448;7.692;2023-01-28T14:59:46;1.50;99.90
19516;DHT22;9901;47.448;7.692;2023-01-28T15:02:22;1.50;99.90
19516;DHT22;9901;47.448;7.692;2023-01-28T15:04:48;1.40;99.90
19516;DHT22;9901;47.448;7.692;2023-01-28T15:07:22;1.40;99.90
19516;DHT22;9901;47.448;7.692;2023-01-28T15:10:16;1.40;99.90
19516;DHT22;9901;47.448;7.692;2023-01-28T15:12:46;1.40;99.90
19516;DHT22;9901;47.448;7.692;2023-01-28T15:15:29;1.30;99.90
19516;DHT22;9901;47.448;7.692;2023-01-28T15:18:02;1.40;99.90
19516;DHT22;9901;47.448;7.692;2023-01-28T15:20:28;1.50;99.90
19516;DHT22;9901;47.448;7.692;2023-01-28T15:22:55;1.40;99.90
19516;DHT22;9901;47.448;7.692;2023-01-28T15:25:25;1.30;99.90
19516;DHT22;9901;47.448;7.692;2023-01-28T15:27:54;1.40;99.90
19516;DHT22;9901;47.448;7.692;2023-01-28T15:30:26;1.40;99.90
19516;DHT22;9901;47.448;7.692;2023-01-28T15:33:10;1.40;99.90
19516;DHT22;9901;47.448;7.692;2023-01-28T15:35:37;1.40;99.90
19516;DHT22;9901;47.448;7.692;2023-01-28T15:38:10;1.40;99.90
19516;DHT22;9901;47.448;7.692;2023-01-28T15:40:45;1.70;99.90
19516;DHT22;9901;47.448;7.692;2023-01-28T15:43:27;1.20;99.90
19516;DHT22;9901;47.448;7.692;2023-01-28T15:46:00;1.30;99.90
19516;DHT22;9901;47.448;7.692;2023-01-28T15:48:28;0.80;99.90
19516;DHT22;9901;47.448;7.692;2023-01-28T15:51:16;1.40;99.90
19516;DHT22;9901;47.448;7.692;2023-01-28T15:53:45;1.30;99.90
19516;DHT22;9901;47.448;7.692;2023-01-28T15:56:13;1.30;99.90
19516;DHT22;9901;47.448;7.692;2023-01-28T15:58:41;1.30;99.90
19516;DHT22;9901;47.448;7.692;2023-01-28T16:03:43;1.30;99.90
19516;DHT22;9901;47.448;7.692;2023-01-28T16:06:21;1.30;99.90
19516;DHT22;9901;47.448;7.692;2023-01-28T16:08:55;1.30;99.90
19516;DHT22;9901;47.448;7.692;2023-01-28T16:11:29;1.20;99.90
19516;DHT22;9901;47.448;7.692;2023-01-28T16:13:56;1.20;99.90
19516;DHT22;9901;47.448;7.692;2023-01-28T16:16:32;1.30;99.90
19516;DHT22;9901;47.448;7.692;2023-01-28T16:18:59;1.30;99.90
19516;DHT22;9901;47.448;7.692;2023-01-28T16:21:30;1.30;99.90
19516;DHT22;9901;47.448;7.692;2023-01-28T16:24:27;1.30;99.90
19516;DHT22;9901;47.448;7.692;2023-01-28T16:27:04;1.20;99.90
19516;DHT22;9901;47.448;7.692;2023-01-28T16:29:31;1.30;99.90
19516;DHT22;9901;47.448;7.692;2023-01-28T16:31:57;1.30;99.90
19516;DHT22;9901;47.448;7.692;2023-01-28T16:34:24;1.30;99.90
19516;DHT22;9901;47.448;7.692;2023-01-28T16:36:58;1.30;99.90
19516;DHT22;9901;47.448;7.692;2023-01-28T16:39:25;1.30;99.90
19516;DHT22;9901;47.448;7.692;2023-01-28T16:41:51;1.30;99.90
19516;DHT22;9901;47.448;7.692;2023-01-28T16:44:18;1.30;99.90
19516;DHT22;9901;47.448;7.692;2023-01-28T16:46:47;1.30;99.90
19516;DHT22;9901;47.448;7.692;2023-01-28T16:49:33;1.30;99.90
19516;DHT22;9901;47.448;7.692;2023-01-28T16:52:00;1.30;99.90
19516;DHT22;9901;47.448;7.692;2023-01-28T16:54:29;1.30;99.90
19516;DHT22;9901;47.448;7.692;2023-01-28T16:56:58;1.30;99.90
19516;DHT22;9901;47.448;7.692;2023-01-28T16:59:27;1.30;99.90
19516;DHT22;9901;47.448;7.692;2023-01-28T17:02:01;1.30;99.90
19516;DHT22;9901;47.448;7.692;2023-01-28T17:04:58;1.30;99.90
19516;DHT22;9901;47.448;7.692;2023-01-28T17:07:26;1.30;99.90
19516;DHT22;9901;47.448;7.692;2023-01-28T17:09:55;1.30;99.90
19516;DHT22;9901;47.448;7.692;2023-01-28T17:12:29;1.30;99.90
19516;DHT22;9901;47.448;7.692;2023-01-28T17:15:02;1.30;99.90
19516;DHT22;9901;47.448;7.692;2023-01-28T17:17:47;1.30;99.90
19516;DHT22;9901;47.448;7.692;2023-01-28T17:20:13;1.30;99.90
19516;DHT22;9901;47.448;7.692;2023-01-28T17:22:39;1.30;99.90
19516;DHT22;9901;47.448;7.692;2023-01-28T17:25:06;1.20;99.90
19516;DHT22;9901;47.448;7.692;2023-01-28T17:27:42;1.30;99.90
19516;DHT22;9901;47.448;7.692;2023-01-28T17:30:08;1.30;99.90
19516;DHT22;9901;47.448;7.692;2023-01-28T17:32:37;1.30;99.90
19516;DHT22;9901;47.448;7.692;2023-01-28T17:35:05;1.30;99.90
19516;DHT22;9901;47.448;7.692;2023-01-28T17:37:31;1.30;99.90
19516;DHT22;9901;47.448;7.692;2023-01-28T17:39:57;1.30;99.90
19516;DHT22;9901;47.448;7.692;2023-01-28T17:42:25;1.30;99.90
19516;DHT22;9901;47.448;7.692;2023-01-28T17:44:56;1.30;99.90
19516;DHT22;9901;47.448;7.692;2023-01-28T17:47:26;1.30;99.90
19516;DHT22;9901;47.448;7.692;2023-01-28T17:49:55;1.30;99.90
19516;DHT22;9901;47.448;7.692;2023-01-28T17:52:24;1.30;99.90
19516;DHT22;9901;47.448;7.692;2023-01-28T17:54:50;1.30;99.90
19516;DHT22;9901;47.448;7.692;2023-01-28T17:57:16;1.40;99.90
19516;DHT22;9901;47.448;7.692;2023-01-28T17:59:41;1.40;99.90
19516;DHT22;9901;47.448;7.692;2023-01-28T18:02:09;1.40;99.90
19516;DHT22;9901;47.448;7.692;2023-01-28T18:04:39;1.40;99.90
19516;DHT22;9901;47.448;7.692;2023-01-28T18:07:06;1.40;99.90
19516;DHT22;9901;47.448;7.692;2023-01-28T18:09:42;1.40;99.90
19516;DHT22;9901;47.448;7.692;2023-01-28T18:12:12;1.30;99.90
19516;DHT22;9901;47.448;7.692;2023-01-28T18:14:40;1.40;99.90
19516;DHT22;9901;47.448;7.692;2023-01-28T18:17:07;1.40;99.90
19516;DHT22;9901;47.448;7.692;2023-01-28T18:19:33;1.30;99.90
19516;DHT22;9901;47.448;7.692;2023-01-28T18:21:59;1.40;99.90
19516;DHT22;9901;47.448;7.692;2023-01-28T18:24:27;1.40;99.90
19516;DHT22;9901;47.448;7.692;2023-01-28T18:26:57;1.30;99.90
19516;DHT22;9901;47.448;7.692;2023-01-28T18:29:30;1.40;99.90
19516;DHT22;9901;47.448;7.692;2023-01-28T18:31:56;1.30;99.90
19516;DHT22;9901;47.448;7.692;2023-01-28T18:34:25;1.30;99.90